Time;durP1;ratioP1;P1;durP2;ratioP2;P2;SDS_P1;SDS_P2;PMS_P1;PMS_P2;Temp;Humidity;BMP_temperature;BMP_pressure;BME280_temperature;BME280_humidity;BME280_pressure;Samples;Min_cycle;Max_cycle;Signal;HPM_P1;HPM_P2
2020/12/29 00:01:48;;;;;;;0.65;0.65;;;;;;;6.38;69.51;93967.64;1770582;80;21143;-89
2020/12/29 00:04:20;;;;;;;2.83;1.67;;;;;;;6.46;69.03;93954.20;1770586;80;21254;-89
2020/12/29 00:06:57;;;;;;;2.27;1.55;;;;;;;6.50;68.83;93948.01;1770398;80;21270;-90
2020/12/29 00:09:27;;;;;;;1.15;1.00;;;;;;;6.52;68.63;93924.00;1770544;80;21310;-89
2020/12/29 00:11:56;;;;;;;2.08;1.50;;;;;;;6.53;68.30;93913.16;1770605;80;21257;-89
2020/12/29 00:14:26;;;;;;;1.82;1.20;;;;;;;6.64;67.86;93931.22;1770717;81;21276;-90
2020/12/29 00:16:55;;;;;;;2.10;0.80;;;;;;;6.64;67.73;93935.94;1770767;80;21162;-90
2020/12/29 00:19:25;;;;;;;1.62;1.30;;;;;;;6.74;67.38;93930.29;1771100;79;21164;-91
2020/12/29 00:21:53;;;;;;;1.50;1.02;;;;;;;6.79;66.71;93940.66;1770607;81;21253;-90
2020/12/29 00:24:20;;;;;;;2.40;1.15;;;;;;;6.87;66.55;93904.81;1770501;80;21277;-90
2020/12/29 00:26:47;;;;;;;1.17;1.05;;;;;;;6.85;66.39;93904.36;1770705;80;21609;-90
2020/12/29 00:29:14;;;;;;;2.30;1.50;;;;;;;6.88;66.35;93893.18;1770458;80;21265;-90
2020/12/29 00:31:41;;;;;;;1.17;1.00;;;;;;;6.86;66.38;93898.00;1769784;80;21147;-90
2020/12/29 00:34:08;;;;;;;2.25;1.45;;;;;;;6.81;66.35;93887.67;1769645;81;21138;-90
2020/12/29 00:36:35;;;;;;;2.10;1.30;;;;;;;6.83;66.38;93878.90;1769763;80;21530;-90
2020/12/29 00:39:04;;;;;;;4.15;1.37;;;;;;;6.73;66.58;93880.05;1769648;81;21151;-90
2020/12/29 00:41:31;;;;;;;2.55;1.80;;;;;;;6.70;66.82;93864.13;1769626;81;21115;-90
2020/12/29 00:43:59;;;;;;;3.45;1.62;;;;;;;6.59;67.24;93859.00;1769658;81;21527;-90
2020/12/29 00:46:26;;;;;;;2.50;1.35;;;;;;;6.44;67.70;93855.84;1769632;81;21122;-89
2020/12/29 00:48:53;;;;;;;2.50;0.90;;;;;;;6.32;68.10;93842.59;1769928;80;21195;-90
2020/12/29 00:51:22;;;;;;;1.15;1.05;;;;;;;6.34;68.03;93877.28;1786767;80;21649;-90
2020/12/29 00:53:49;;;;;;;2.25;1.02;;;;;;;6.70;66.69;93862.26;1786646;80;21299;-90
2020/12/29 00:56:16;;;;;;;2.42;1.22;;;;;;;6.89;66.35;93887.37;1786711;80;21139;-90
2020/12/29 00:58:43;;;;;;;1.50;1.05;;;;;;;6.95;66.00;93824.98;1786682;80;21134;-90
2020/12/29 01:01:11;;;;;;;1.10;0.72;;;;;;;6.96;66.00;93867.34;1786729;80;21140;-90
2020/12/29 01:03:39;;;;;;;1.77;0.90;;;;;;;6.99;65.73;93844.30;1786711;80;21162;-91
2020/12/29 01:06:07;;;;;;;1.12;0.90;;;;;;;7.04;65.54;93825.69;1786634;80;21165;-90
2020/12/29 01:08:34;;;;;;;0.85;0.68;;;;;;;7.02;65.67;93844.97;1786610;80;21134;-91
2020/12/29 01:11:01;;;;;;;0.80;0.70;;;;;;;7.01;65.67;93856.59;1786697;80;21139;-90
2020/12/29 01:13:28;;;;;;;1.40;1.00;;;;;;;7.01;65.60;93844.75;1786602;80;21157;-90
2020/12/29 01:15:56;;;;;;;1.52;1.10;;;;;;;6.99;65.84;93828.50;1786722;80;21526;-90
2020/12/29 01:18:23;;;;;;;0.60;0.60;;;;;;;6.94;65.95;93835.29;1786690;80;21158;-90
2020/12/29 01:20:50;;;;;;;1.35;0.95;;;;;;;6.94;65.89;93860.86;1773399;79;21517;-90
2020/12/29 01:23:18;;;;;;;1.42;0.90;;;;;;;6.97;65.86;93845.17;1769620;81;21171;-90
2020/12/29 01:25:45;;;;;;;0.40;0.40;;;;;;;6.96;65.79;93833.10;1769826;81;21143;-90
2020/12/29 01:28:13;;;;;;;2.08;1.00;;;;;;;7.03;65.34;93833.88;1769576;81;21181;-90
2020/12/29 01:30:40;;;;;;;2.35;0.93;;;;;;;7.07;65.42;93809.23;1769865;81;21159;-90
2020/12/29 01:33:07;;;;;;;1.72;0.98;;;;;;;7.10;65.08;93807.80;1770613;81;21506;-90
2020/12/29 01:35:34;;;;;;;1.10;0.70;;;;;;;7.12;64.75;93810.33;1770476;80;21135;-91
2020/12/29 01:38:05;;;;;;;1.75;0.82;;;;;;;7.15;64.58;93826.80;1770427;80;21120;-90
2020/12/29 01:40:34;;;;;;;;;;;;;;;7.21;64.63;93797.64;1773057;80;21147;-90
2020/12/29 01:43:03;;;;;;;1.35;0.70;;;;;;;7.18;64.37;93789.84;1770509;80;20457;-90
2020/12/29 01:45:30;;;;;;;0.72;0.47;;;;;;;7.18;64.38;93806.17;1770427;80;21268;-91
2020/12/29 01:47:58;;;;;;;0.30;0.30;;;;;;;7.27;63.57;93809.50;1770488;80;21313;-91
2020/12/29 01:50:25;;;;;;;0.85;0.55;;;;;;;7.33;63.20;93810.30;1771164;79;21167;-91
2020/12/29 01:53:01;;;;;;;0.30;0.30;;;;;;;7.39;63.02;93808.22;1770491;80;21305;-91
2020/12/29 01:55:31;;;;;;;1.85;0.47;;;;;;;7.38;62.84;93794.82;1765859;80;21139;-91
2020/12/29 01:58:01;;;;;;;0.95;0.47;;;;;;;7.37;62.65;93777.47;1770632;81;21305;-90
2020/12/29 02:00:29;;;;;;;0.25;0.25;;;;;;;7.37;62.94;93786.14;1770426;80;21170;-91
2020/12/29 02:02:58;;;;;;;0.72;0.23;;;;;;;7.35;63.13;93773.08;1770567;80;21129;-91
2020/12/29 02:05:28;;;;;;;1.62;0.33;;;;;;;7.25;63.29;93802.47;1770435;80;21131;-91
2020/12/29 02:07:57;;;;;;;0.65;0.45;;;;;;;7.24;63.23;93794.34;1770603;80;21158;-91
2020/12/29 02:10:25;;;;;;;1.35;0.53;;;;;;;7.28;63.30;93780.19;1770516;80;21475;-91
2020/12/29 02:12:52;;;;;;;0.47;0.40;;;;;;;7.25;63.32;93770.30;1770556;80;21285;-91
2020/12/29 02:15:19;;;;;;;0.45;0.45;;;;;;;7.21;63.60;93767.34;1770342;80;21143;-91
2020/12/29 02:17:46;;;;;;;0.20;0.20;;;;;;;7.20;63.55;93775.79;1770465;80;21135;-91
2020/12/29 02:20:13;;;;;;;0.28;0.20;;;;;;;7.24;63.41;93762.73;1770882;79;21138;-90
2020/12/29 02:22:40;;;;;;;1.07;0.42;;;;;;;7.29;62.95;93758.55;1770411;81;21525;-88
2020/12/29 02:25:10;;;;;;;0.50;0.40;;;;;;;7.31;62.93;93765.03;1770367;80;21131;-88
2020/12/29 02:27:48;;;;;;;0.55;0.33;;;;;;;7.24;63.10;93754.83;1770796;80;21281;-88
2020/12/29 02:30:20;;;;;;;0.93;0.33;;;;;;;7.29;63.08;93749.33;1770420;80;21124;-90
2020/12/29 02:32:47;;;;;;;0.68;0.30;;;;;;;7.24;62.72;93796.98;1770669;80;21270;-90
2020/12/29 02:35:15;;;;;;;0.42;0.42;;;;;;;7.31;62.88;93753.72;1770340;81;21253;-89
2020/12/29 02:37:44;;;;;;;0.20;0.20;;;;;;;7.29;62.81;93773.05;1770699;80;21269;-89
2020/12/29 02:40:11;;;;;;;0.65;0.50;;;;;;;7.29;62.68;93783.59;1770432;80;21293;-89
2020/12/29 02:42:38;;;;;;;1.12;0.60;;;;;;;7.33;62.76;93776.59;1770424;81;21273;-89
2020/12/29 02:45:07;;;;;;;0.40;0.40;;;;;;;7.32;63.13;93788.20;1770426;80;21523;-89
2020/12/29 02:47:34;;;;;;;0.60;0.47;;;;;;;7.31;62.93;93785.34;1770417;80;21135;-90
2020/12/29 02:50:01;;;;;;;0.75;0.30;;;;;;;7.37;63.12;93790.09;1770873;79;21448;-90
2020/12/29 02:52:28;;;;;;;0.20;0.17;;;;;;;7.37;62.68;93836.22;1770484;80;21542;-90
2020/12/29 02:54:55;;;;;;;0.72;0.17;;;;;;;7.41;63.28;93833.69;1770348;81;21107;-90
2020/12/29 02:57:22;;;;;;;0.40;0.40;;;;;;;7.29;64.40;93824.44;1770437;81;21107;-89
2020/12/29 02:59:49;;;;;;;0.40;0.35;;;;;;;7.12;65.54;93799.02;1791873;79;21147;-89
2020/12/29 03:02:15;;;;;;;0.40;0.30;;;;;;;6.98;66.56;93786.69;1819265;79;21131;-89
2020/12/29 03:04:42;;;;;;;0.33;0.33;;;;;;;6.90;66.87;93773.83;1819257;79;21483;-88
2020/12/29 03:07:12;;;;;;;0.25;0.25;;;;;;;6.84;67.12;93778.52;1819398;79;21107;-88
2020/12/29 03:09:39;;;;;;;0.40;0.20;;;;;;;6.80;67.32;93771.59;1819203;79;21175;-89
2020/12/29 03:12:07;;;;;;;0.57;0.28;;;;;;;6.78;67.31;93767.20;1819263;79;21127;-88
2020/12/29 03:14:34;;;;;;;0.20;0.20;;;;;;;6.76;67.46;93758.31;1819264;79;21463;-88
2020/12/29 03:17:01;;;;;;;1.00;0.30;;;;;;;6.79;67.02;93759.52;1819338;79;21506;-88
2020/12/29 03:19:28;;;;;;;0.10;0.10;;;;;;;6.86;66.57;93751.86;1807258;79;21147;-88
2020/12/29 03:21:56;;;;;;;0.10;0.10;;;;;;;6.93;66.17;93736.86;1770454;80;21136;-89
2020/12/29 03:24:23;;;;;;;0.47;0.25;;;;;;;6.98;65.96;93716.89;1770376;80;21115;-88
2020/12/29 03:26:51;;;;;;;0.10;0.03;;;;;;;6.98;66.11;93736.09;1770454;80;21512;-89
2020/12/29 03:29:17;;;;;;;0.10;0.08;;;;;;;7.01;65.85;93724.91;1770505;80;21177;-89
2020/12/29 03:31:45;;;;;;;0.35;0.10;;;;;;;6.98;65.91;93726.88;1770462;80;21170;-89
2020/12/29 03:34:21;;;;;;;0.00;0.00;;;;;;;7.00;65.64;93693.62;1770343;81;21146;-89
2020/12/29 03:36:44;;;;;;;0.08;0.08;;;;;;;6.97;65.42;93678.48;1770053;80;21527;-88
2020/12/29 03:39:11;;;;;;;0.00;0.00;;;;;;;6.91;65.77;93676.63;1770408;80;21148;-89
2020/12/29 03:41:38;;;;;;;0.20;0.00;;;;;;;6.88;65.58;93648.28;1770654;81;21175;-89
2020/12/29 03:44:05;;;;;;;0.00;0.00;;;;;;;6.87;65.60;93656.52;1770370;80;21131;-88
2020/12/29 03:46:32;;;;;;;0.23;0.00;;;;;;;6.82;65.50;93641.70;1770634;80;21130;-89
2020/12/29 03:48:59;;;;;;;0.35;0.00;;;;;;;6.81;65.20;93614.60;1770878;79;21139;-89
2020/12/29 03:51:26;;;;;;;0.00;0.00;;;;;;;6.81;65.52;93649.38;1770411;80;21292;-89
2020/12/29 03:53:53;;;;;;;0.20;0.10;;;;;;;6.77;65.14;93652.45;1770366;80;21147;-88
2020/12/29 03:56:20;;;;;;;0.00;0.00;;;;;;;6.75;65.44;93626.97;1770313;80;21132;-89
2020/12/29 03:58:47;;;;;;;0.00;0.00;;;;;;;6.70;65.22;93655.60;1770373;80;21506;-89
2020/12/29 04:01:14;;;;;;;0.00;0.00;;;;;;;6.73;64.60;93608.11;1770331;80;21155;-89
2020/12/29 04:03:44;;;;;;;0.00;0.00;;;;;;;6.79;64.27;93635.78;1770488;81;21280;-89
2020/12/29 04:06:13;;;;;;;0.00;0.00;;;;;;;6.80;64.00;93618.34;1770387;81;21143;-89
2020/12/29 04:08:40;;;;;;;0.00;0.00;;;;;;;6.81;64.41;93586.95;1770085;80;21514;-90
2020/12/29 04:11:08;;;;;;;0.00;0.00;;;;;;;6.78;64.22;93622.40;1770373;80;21676;-90
2020/12/29 04:13:35;;;;;;;0.00;0.00;;;;;;;6.76;63.86;93625.91;1770410;80;21486;-89
2020/12/29 04:16:02;;;;;;;0.00;0.00;;;;;;;6.79;64.02;93614.17;1770385;81;21154;-90
2020/12/29 04:18:29;;;;;;;0.00;0.00;;;;;;;6.73;63.98;93614.69;1770337;80;21160;-89
2020/12/29 04:20:56;;;;;;;0.00;0.00;;;;;;;6.72;64.32;93606.57;1770885;79;21158;-90
2020/12/29 04:23:23;;;;;;;0.00;0.00;;;;;;;6.68;64.05;93631.47;1770403;80;21138;-89
2020/12/29 04:25:50;;;;;;;2.17;0.10;;;;;;;6.69;64.07;93629.06;1770313;80;21123;-89
2020/12/29 04:28:17;;;;;;;0.00;0.00;;;;;;;6.64;64.15;93624.02;1770369;80;21158;-90
2020/12/29 04:30:44;;;;;;;0.23;0.10;;;;;;;6.65;63.80;93642.66;1770392;80;21495;-89
2020/12/29 04:33:11;;;;;;;0.00;0.00;;;;;;;6.68;64.28;93620.17;1770389;80;21127;-89
2020/12/29 04:35:38;;;;;;;0.10;0.00;;;;;;;6.64;64.16;93627.20;1770367;80;21166;-89
2020/12/29 04:38:05;;;;;;;0.10;0.00;;;;;;;6.63;64.14;93640.14;1770466;81;21131;-90
2020/12/29 04:40:33;;;;;;;0.00;0.00;;;;;;;6.63;64.32;93623.80;1770464;80;21289;-89
2020/12/29 04:43:00;;;;;;;0.00;0.00;;;;;;;6.57;64.45;93629.58;1770538;80;21261;-89
2020/12/29 04:45:27;;;;;;;0.10;0.00;;;;;;;6.47;64.59;93656.52;1770442;80;21273;-89
2020/12/29 04:47:54;;;;;;;0.00;0.00;;;;;;;6.43;64.48;93658.27;1770448;80;21272;-89
2020/12/29 04:50:22;;;;;;;0.10;0.10;;;;;;;6.46;64.61;93668.13;1770967;79;21629;-89
2020/12/29 04:52:54;;;;;;;0.00;0.00;;;;;;;6.45;64.68;93681.07;1770604;81;21159;-90
2020/12/29 04:55:27;;;;;;;0.00;0.00;;;;;;;6.44;64.60;93669.01;1770298;80;21261;-89
2020/12/29 04:57:53;;;;;;;0.10;0.10;;;;;;;6.41;64.98;93674.92;1770511;80;21115;-89
2020/12/29 05:00:23;;;;;;;0.15;0.10;;;;;;;6.28;65.35;93686.48;1770430;81;21143;-89
2020/12/29 05:02:50;;;;;;;0.10;0.10;;;;;;;6.15;65.82;93699.35;1770908;81;21126;-89
2020/12/29 05:05:18;;;;;;;0.37;0.00;;;;;;;6.05;66.35;93695.23;1770448;80;21328;-89
2020/12/29 05:07:47;;;;;;;0.10;0.10;;;;;;;6.00;66.78;93702.55;1770525;81;21131;-89
2020/12/29 05:10:14;;;;;;;0.40;0.20;;;;;;;5.92;67.09;93702.86;1770833;81;21254;-89
2020/12/29 05:12:52;;;;;;;0.00;0.00;;;;;;;5.92;67.28;93716.00;1770499;80;21147;-88
2020/12/29 05:15:21;;;;;;;0.33;0.20;;;;;;;5.88;67.68;93725.02;1770452;80;21143;-89
2020/12/29 05:17:49;;;;;;;0.10;0.10;;;;;;;5.87;67.89;93730.59;1770500;80;21175;-89
2020/12/29 05:20:33;;;;;;;0.30;0.00;;;;;;;5.82;68.06;93740.77;1771014;79;21661;-90
2020/12/29 05:22:50;;;;;;;0.00;0.00;;;;;;;5.84;68.19;93747.78;1769503;80;21531;-89
2020/12/29 05:25:17;;;;;;;0.08;0.08;;;;;;;5.90;68.15;93751.02;1770421;81;21507;-90
2020/12/29 05:27:45;;;;;;;0.00;0.00;;;;;;;5.88;68.44;93774.20;1770512;80;21147;-90
2020/12/29 05:30:11;;;;;;;0.10;0.10;;;;;;;5.84;68.58;93778.02;1770465;81;21128;-90
2020/12/29 05:32:40;;;;;;;0.20;0.10;;;;;;;5.82;68.99;93782.83;1770044;80;21179;-89
2020/12/29 05:35:14;;;;;;;0.10;0.10;;;;;;;5.78;69.18;93774.04;1769719;81;21541;-90
2020/12/29 05:37:43;;;;;;;0.42;0.20;;;;;;;5.70;69.14;93769.58;1769680;81;21451;-90
2020/12/29 05:40:30;;;;;;;0.30;0.10;;;;;;;5.71;69.04;93764.55;1769619;81;21172;-89
2020/12/29 05:43:01;;;;;;;0.68;0.17;;;;;;;5.72;69.23;93772.66;1769686;81;21132;-90
2020/12/29 05:45:34;;;;;;;1.50;0.20;;;;;;;5.70;69.17;93780.09;1769985;81;21120;-90
2020/12/29 05:48:03;;;;;;;0.20;0.10;;;;;;;5.69;69.22;93789.06;1769768;81;21088;-90
2020/12/29 05:50:33;;;;;;;0.10;0.10;;;;;;;5.68;69.23;93818.30;1770284;79;21120;-90
2020/12/29 05:53:07;;;;;;;0.10;0.10;;;;;;;5.73;69.15;93824.14;1769643;81;21159;-90
2020/12/29 05:55:35;;;;;;;0.10;0.03;;;;;;;5.75;69.07;93811.45;1769849;81;21139;-90
2020/12/29 05:58:08;;;;;;;0.20;0.08;;;;;;;5.76;68.96;93812.98;1769645;81;21103;-90
2020/12/29 06:00:41;;;;;;;0.40;0.20;;;;;;;5.77;68.91;93814.56;1769821;81;21152;-90
2020/12/29 06:03:09;;;;;;;0.15;0.10;;;;;;;5.77;68.89;93830.33;1769679;81;21127;-90
2020/12/29 06:05:38;;;;;;;1.05;0.30;;;;;;;5.76;68.94;93831.93;1769687;81;21503;-90
2020/12/29 06:08:08;;;;;;;0.50;0.20;;;;;;;5.69;69.08;93834.30;1769626;81;21134;-90
2020/12/29 06:10:37;;;;;;;0.25;0.20;;;;;;;5.64;69.08;93830.76;1770092;81;21092;-90
2020/12/29 06:13:06;;;;;;;0.35;0.20;;;;;;;5.68;69.08;93830.89;1769701;81;21499;-90
2020/12/29 06:15:38;;;;;;;0.40;0.20;;;;;;;5.71;68.99;93846.03;1769672;80;21539;-90
2020/12/29 06:18:08;;;;;;;0.30;0.20;;;;;;;5.76;68.96;93850.33;1769680;81;21120;-90
2020/12/29 06:20:50;;;;;;;0.60;0.30;;;;;;;5.77;68.96;93850.05;1770093;79;21174;-90
2020/12/29 06:23:22;;;;;;;2.98;1.02;;;;;;;5.74;69.04;93860.39;1769884;81;21135;-90
2020/12/29 06:25:51;;;;;;;0.78;0.55;;;;;;;5.69;69.11;93864.52;1752247;81;21511;-89
2020/12/29 06:28:21;;;;;;;1.07;0.40;;;;;;;5.72;69.02;93885.69;1769604;81;21139;-91
2020/12/29 06:30:51;;;;;;;0.50;0.20;;;;;;;5.79;68.80;93907.02;1769098;81;21151;-89
2020/12/29 06:33:18;;;;;;;0.23;0.20;;;;;;;5.80;68.44;93900.67;1769519;81;21116;-90
2020/12/29 06:35:46;;;;;;;0.40;0.35;;;;;;;5.83;68.18;93902.66;1769615;80;21526;-90
2020/12/29 06:38:24;;;;;;;1.32;0.90;;;;;;;5.89;67.99;93933.49;1769532;81;21164;-90
2020/12/29 06:40:53;;;;;;;0.35;0.25;;;;;;;5.91;68.51;93932.14;1752244;81;21503;-89
2020/12/29 06:43:20;;;;;;;0.88;0.20;;;;;;;5.93;68.09;93915.51;1769573;81;21127;-89
2020/12/29 06:45:47;;;;;;;0.60;0.20;;;;;;;5.95;68.41;93963.30;1769642;81;21159;-90
2020/12/29 06:48:22;;;;;;;0.17;0.10;;;;;;;5.99;68.32;93970.55;1769493;81;21139;-90
2020/12/29 06:50:49;;;;;;;0.23;0.10;;;;;;;5.96;68.31;93939.08;1770273;79;21151;-90
2020/12/29 06:53:18;;;;;;;0.28;0.23;;;;;;;5.93;68.19;93981.24;1769524;81;21151;-89
2020/12/29 06:55:49;;;;;;;1.62;0.33;;;;;;;5.89;68.25;93993.42;1769968;81;21168;-90
2020/12/29 06:58:33;;;;;;;;;;;;;;;5.87;68.03;93986.39;1772211;80;21184;-90
2020/12/29 07:01:23;;;;;;;0.23;0.20;;;;;;;5.84;68.16;94012.00;1769773;81;20116;-90
2020/12/29 07:04:03;;;;;;;0.40;0.30;;;;;;;5.80;67.75;94046.57;1769829;81;21123;-91
2020/12/29 07:06:35;;;;;;;0.57;0.33;;;;;;;5.79;67.69;94050.28;1769787;81;21143;-91
2020/12/29 07:09:20;;;;;;;0.17;0.15;;;;;;;5.77;68.03;94055.09;1769550;81;21792;-90
2020/12/29 07:12:08;;;;;;;0.65;0.30;;;;;;;5.73;67.88;94048.87;1769516;81;21147;-90
2020/12/29 07:14:37;;;;;;;1.22;0.20;;;;;;;5.70;67.94;94066.59;1769814;81;21119;-90
2020/12/29 07:17:08;;;;;;;0.68;0.40;;;;;;;5.66;68.05;94045.95;1769519;81;21154;-90
2020/12/29 07:19:40;;;;;;;0.45;0.30;;;;;;;5.64;68.06;94109.89;1770380;79;21142;-90
2020/12/29 07:22:17;;;;;;;1.12;0.30;;;;;;;5.59;67.98;94042.46;1769194;81;21249;-89
2020/12/29 07:24:46;;;;;;;2.22;0.30;;;;;;;5.56;68.43;94075.16;1769506;81;21111;-90
2020/12/29 07:27:15;;;;;;;1.42;0.40;;;;;;;5.51;68.92;94129.19;1769708;81;21131;-90
2020/12/29 07:30:00;;;;;;;0.42;0.28;;;;;;;5.45;69.02;94093.61;1769610;81;21510;-90
2020/12/29 07:32:28;;;;;;;0.20;0.20;;;;;;;5.41;69.29;94145.23;1769422;80;21602;-90
2020/12/29 07:34:55;;;;;;;0.57;0.20;;;;;;;5.36;69.50;94182.94;1769524;81;21115;-90
2020/12/29 07:37:24;;;;;;;0.28;0.25;;;;;;;5.32;69.64;94166.98;1769621;81;21142;-89
2020/12/29 07:39:51;;;;;;;0.37;0.20;;;;;;;5.29;69.77;94176.80;1769476;81;21139;-91
2020/12/29 07:42:19;;;;;;;0.42;0.30;;;;;;;5.27;69.71;94220.21;1769470;80;21104;-90
2020/12/29 07:44:46;;;;;;;0.35;0.28;;;;;;;5.22;69.82;94206.69;1769589;81;21127;-91
2020/12/29 07:47:13;;;;;;;2.20;0.50;;;;;;;5.22;69.68;94232.95;1769572;81;21134;-90
2020/12/29 07:49:40;;;;;;;0.50;0.47;;;;;;;5.25;69.59;94221.83;1770014;79;21280;-90
2020/12/29 07:52:08;;;;;;;1.20;0.60;;;;;;;5.28;69.68;94238.83;1769485;81;21163;-91
2020/12/29 07:54:35;;;;;;;1.27;0.45;;;;;;;5.28;69.39;94255.91;1769610;80;21135;-91
2020/12/29 07:57:02;;;;;;;0.95;0.42;;;;;;;5.28;69.15;94267.19;1769422;81;21469;-90
2020/12/29 07:59:29;;;;;;;0.78;0.60;;;;;;;5.26;69.38;94283.80;1769574;80;21459;-90
2020/12/29 08:01:58;;;;;;;0.40;0.40;;;;;;;5.26;68.96;94291.67;1769590;81;21507;-90
2020/12/29 08:04:33;;;;;;;0.90;0.53;;;;;;;5.19;68.36;94284.75;1769814;81;21139;-90
2020/12/29 08:07:09;;;;;;;0.42;0.33;;;;;;;5.09;68.27;94324.41;1769501;80;21606;-90
2020/12/29 08:09:47;;;;;;;0.50;0.42;;;;;;;5.01;67.84;94315.38;1769534;81;21146;-90
2020/12/29 08:12:17;;;;;;;0.62;0.47;;;;;;;4.95;67.30;94310.56;1769437;81;21097;-91
2020/12/29 08:14:45;;;;;;;0.80;0.42;;;;;;;4.89;66.59;94336.67;1770086;81;21143;-89
2020/12/29 08:17:12;;;;;;;0.47;0.47;;;;;;;4.85;65.82;94301.06;1769730;81;21135;-90
2020/12/29 08:19:39;;;;;;;0.88;0.47;;;;;;;4.83;65.81;94316.34;1770169;79;21142;-90
2020/12/29 08:22:11;;;;;;;1.95;0.60;;;;;;;4.80;65.25;94337.16;1769838;81;21159;-90
2020/12/29 08:24:41;;;;;;;0.45;0.45;;;;;;;4.74;65.16;94273.50;1769670;81;21143;-90
2020/12/29 08:27:08;;;;;;;0.35;0.35;;;;;;;4.73;65.00;94376.93;1769782;81;21179;-90
2020/12/29 08:29:36;;;;;;;0.75;0.30;;;;;;;4.70;65.39;94399.84;1769619;81;21112;-90
2020/12/29 08:32:12;;;;;;;0.88;0.50;;;;;;;4.65;65.46;94407.83;1769697;81;21159;-90
2020/12/29 08:34:45;;;;;;;0.57;0.47;;;;;;;4.62;65.55;94419.66;1769067;81;21139;-89
2020/12/29 08:37:22;;;;;;;1.30;0.53;;;;;;;4.61;65.86;94429.14;1769921;81;21148;-90
2020/12/29 08:40:10;;;;;;;0.30;0.30;;;;;;;4.61;65.74;94446.97;1769913;81;21135;-90
2020/12/29 08:42:39;;;;;;;1.57;0.68;;;;;;;4.64;65.53;94463.44;1769475;81;21146;-90
2020/12/29 08:45:08;;;;;;;1.70;0.50;;;;;;;4.65;65.46;94466.87;1769907;81;21143;-90
2020/12/29 08:47:35;;;;;;;0.57;0.40;;;;;;;4.68;63.83;94468.91;1769703;80;21131;-90
2020/12/29 08:50:25;;;;;;;0.75;0.60;;;;;;;4.73;63.39;94484.54;1770182;79;21147;-89
2020/12/29 08:52:56;;;;;;;0.70;0.53;;;;;;;4.83;62.54;94487.50;1769730;81;21499;-90
2020/12/29 08:55:29;;;;;;;2.77;1.05;;;;;;;4.88;62.53;94493.95;1768946;81;21135;-90
2020/12/29 08:57:58;;;;;;;0.85;0.60;;;;;;;4.89;61.55;94496.28;1769682;81;21167;-90
2020/12/29 09:00:27;;;;;;;1.00;0.82;;;;;;;4.93;60.63;94487.30;1769656;81;21162;-90
2020/12/29 09:02:54;;;;;;;0.30;0.30;;;;;;;4.95;61.72;94523.23;1769614;81;21155;-90
2020/12/29 09:05:27;;;;;;;0.60;0.40;;;;;;;5.08;61.30;94519.81;1752324;81;21640;-90
2020/12/29 09:07:56;;;;;;;0.40;0.40;;;;;;;5.12;60.91;94549.66;1769749;81;21115;-90
2020/12/29 09:10:24;;;;;;;0.80;0.47;;;;;;;5.16;59.96;94537.48;1769946;81;21147;-91
2020/12/29 09:12:50;;;;;;;0.75;0.55;;;;;;;5.32;60.41;94558.42;1769622;81;21139;-90
2020/12/29 09:15:27;;;;;;;0.42;0.28;;;;;;;5.60;60.46;94539.97;1769735;80;21131;-90
2020/12/29 09:18:00;;;;;;;1.47;0.93;;;;;;;5.68;59.17;94593.70;1769802;81;21092;-90
2020/12/29 09:20:32;;;;;;;0.62;0.55;;;;;;;5.80;60.68;94581.59;1770293;79;21516;-90
2020/12/29 09:23:15;;;;;;;2.00;0.93;;;;;;;5.95;60.17;94597.59;1769533;81;21146;-90
2020/12/29 09:25:44;;;;;;;;;;;;;;;5.99;60.44;94598.55;1772319;81;21124;-90
2020/12/29 09:28:18;;;;;;;0.60;0.50;;;;;;;6.13;59.96;94582.17;1769887;81;20405;-90
2020/12/29 09:31:04;;;;;;;1.25;0.82;;;;;;;6.16;59.71;94560.52;1769671;81;21115;-91
2020/12/29 09:33:34;;;;;;;0.80;0.80;;;;;;;6.33;60.23;94586.70;1769912;80;21178;-91
2020/12/29 09:36:03;;;;;;;1.10;0.60;;;;;;;6.46;59.71;94602.42;1770937;80;21128;-91
2020/12/29 09:38:32;;;;;;;1.50;1.00;;;;;;;6.52;59.41;94605.18;1770566;80;21601;-91
2020/12/29 09:41:04;;;;;;;1.77;1.05;;;;;;;6.51;59.88;94621.28;1770512;80;21297;-91
2020/12/29 09:43:32;;;;;;;1.98;1.02;;;;;;;6.40;59.13;94618.11;1770488;80;21139;-91
2020/12/29 09:45:59;;;;;;;1.57;0.95;;;;;;;6.40;59.41;94614.16;1770485;80;21650;-91
2020/12/29 09:48:28;;;;;;;1.65;0.80;;;;;;;6.36;59.66;94618.48;1770451;80;21321;-92
2020/12/29 09:50:55;;;;;;;1.57;0.88;;;;;;;6.29;59.05;94627.31;1770980;79;21625;-90
2020/12/29 09:53:22;;;;;;;1.80;1.02;;;;;;;6.28;59.71;94611.28;1770519;81;21636;-91
2020/12/29 09:55:49;;;;;;;3.35;1.10;;;;;;;6.13;59.05;94608.48;1770377;81;21163;-91
2020/12/29 09:58:17;;;;;;;1.82;1.22;;;;;;;6.09;59.51;94615.42;1770459;80;21622;-91
2020/12/29 10:00:46;;;;;;;2.25;1.40;;;;;;;6.14;60.34;94619.23;1770476;80;21150;-91
2020/12/29 10:03:15;;;;;;;1.20;0.90;;;;;;;6.21;60.34;94639.88;1770838;81;21155;-90
2020/12/29 10:05:43;;;;;;;1.55;0.93;;;;;;;6.21;59.43;94645.14;1770363;81;21142;-90
2020/12/29 10:08:12;;;;;;;1.52;1.00;;;;;;;6.16;59.02;94636.03;1770371;80;21298;-91
2020/12/29 10:10:40;;;;;;;1.90;0.90;;;;;;;6.09;59.47;94670.66;1770108;80;21297;-91
2020/12/29 10:13:08;;;;;;;1.07;0.70;;;;;;;6.08;59.69;94648.60;1770430;81;21549;-91
2020/12/29 10:15:35;;;;;;;2.15;1.10;;;;;;;6.19;59.30;94636.23;1770435;80;21273;-91
2020/12/29 10:18:03;;;;;;;1.45;1.00;;;;;;;6.30;59.14;94647.28;1770599;80;21274;-89
2020/12/29 10:20:30;;;;;;;1.82;1.05;;;;;;;6.35;59.05;94647.73;1770866;79;21155;-90
2020/12/29 10:22:57;;;;;;;2.20;0.78;;;;;;;6.46;58.21;94635.31;1770559;80;21301;-90
2020/12/29 10:25:24;;;;;;;1.00;0.82;;;;;;;6.42;57.80;94637.00;1770421;80;21277;-90
2020/12/29 10:27:51;;;;;;;1.77;0.78;;;;;;;6.40;57.49;94658.90;1770393;80;21138;-91
2020/12/29 10:30:18;;;;;;;2.80;1.10;;;;;;;6.39;56.61;94656.03;1770440;80;21549;-90
2020/12/29 10:32:45;;;;;;;0.95;0.60;;;;;;;6.35;56.16;94660.34;1770714;81;21305;-91
2020/12/29 10:35:13;;;;;;;2.52;1.07;;;;;;;6.42;56.20;94662.00;1770235;81;21257;-90
2020/12/29 10:37:40;;;;;;;1.27;0.60;;;;;;;6.37;55.30;94631.87;1770653;80;21146;-90
2020/12/29 10:40:07;;;;;;;1.07;0.75;;;;;;;6.36;55.04;94656.63;1770392;81;21306;-90
2020/12/29 10:42:34;;;;;;;1.17;0.78;;;;;;;6.45;55.16;94651.41;1770605;80;21142;-90
2020/12/29 10:45:01;;;;;;;4.22;1.45;;;;;;;6.53;55.40;94659.38;1770339;80;21104;-90
2020/12/29 10:47:28;;;;;;;2.25;0.60;;;;;;;6.70;56.40;94675.05;1770401;80;21142;-91
2020/12/29 10:49:56;;;;;;;1.47;0.72;;;;;;;6.78;54.97;94676.97;1770850;79;21172;-90
2020/12/29 10:52:23;;;;;;;1.22;0.70;;;;;;;6.86;55.65;94668.31;1770427;80;21496;-91
2020/12/29 10:54:50;;;;;;;1.60;0.80;;;;;;;6.96;54.71;94665.44;1770417;80;21158;-90
2020/12/29 10:57:19;;;;;;;2.30;0.95;;;;;;;7.04;54.44;94668.66;1770674;80;21277;-90
2020/12/29 10:59:46;;;;;;;2.35;0.90;;;;;;;7.16;55.57;94691.80;1770355;80;21164;-90
2020/12/29 11:02:13;;;;;;;1.62;0.53;;;;;;;7.23;54.71;94680.83;1770628;80;21292;-91
2020/12/29 11:04:40;;;;;;;1.90;1.00;;;;;;;7.24;54.00;94693.70;1770377;80;21487;-90
2020/12/29 11:07:07;;;;;;;2.65;1.00;;;;;;;7.27;53.41;94692.31;1770361;80;21130;-90
2020/12/29 11:09:34;;;;;;;2.67;0.70;;;;;;;7.31;54.41;94697.20;1770555;80;21166;-91
2020/12/29 11:12:01;;;;;;;2.52;0.65;;;;;;;7.26;52.67;94682.31;1770649;80;21305;-90
2020/12/29 11:14:28;;;;;;;1.80;1.07;;;;;;;7.17;53.62;94699.93;1770402;80;21305;-90
2020/12/29 11:16:55;;;;;;;1.40;0.98;;;;;;;7.17;53.56;94699.93;1770446;80;21633;-91
2020/12/29 11:19:22;;;;;;;0.57;0.40;;;;;;;7.19;53.19;94719.42;1770775;79;21142;-90
2020/12/29 11:21:49;;;;;;;0.70;0.40;;;;;;;7.22;53.60;94710.91;1770354;80;21166;-91
2020/12/29 11:24:16;;;;;;;1.05;0.57;;;;;;;7.19;53.47;94724.15;1770332;80;21146;-92
2020/12/29 11:26:48;;;;;;;0.65;0.45;;;;;;;7.24;52.62;94740.36;1770344;80;21131;-90
2020/12/29 11:29:15;;;;;;;0.70;0.53;;;;;;;7.31;52.24;94726.20;1770640;81;21318;-91
2020/12/29 11:31:42;;;;;;;1.70;0.90;;;;;;;7.29;52.65;94732.31;1770390;81;21134;-91
2020/12/29 11:34:09;;;;;;;1.65;0.80;;;;;;;7.29;52.53;94746.81;1770349;81;21542;-91
2020/12/29 11:36:36;;;;;;;1.22;0.72;;;;;;;7.35;52.70;94747.72;1770400;80;21146;-91
2020/12/29 11:39:03;;;;;;;1.00;0.57;;;;;;;7.44;51.93;94750.37;1770427;80;21609;-90
2020/12/29 11:41:30;;;;;;;1.55;0.57;;;;;;;7.44;51.52;94756.97;1770343;80;21112;-91
2020/12/29 11:43:57;;;;;;;3.65;0.95;;;;;;;7.49;51.20;94756.08;1770472;81;21498;-91
2020/12/29 11:46:24;;;;;;;0.50;0.45;;;;;;;7.56;52.76;94761.13;1770383;81;21514;-91
2020/12/29 11:48:52;;;;;;;1.12;0.70;;;;;;;7.68;50.97;94761.34;1770531;80;21116;-91
2020/12/29 11:51:19;;;;;;;0.95;0.65;;;;;;;7.73;52.30;94774.39;1819401;79;21491;-91